Time;durP1;ratioP1;P1;durP2;ratioP2;P2;SDS_P1;SDS_P2;PMS_P1;PMS_P2;Temp;Humidity;BMP_temperature;BMP_pressure;BME280_temperature;BME280_humidity;BME280_pressure;Samples;Min_cycle;Max_cycle;Signal;HPM_P1;HPM_P2
2024/02/28 00:02:36;0.00;0.00;0.62;0.00;0.00;0.62;2.60;1.73;;;21.50;23.80;;;;;;2256246;61;20906;-68
2024/02/28 00:05:20;0.00;0.00;0.62;0.00;0.00;0.62;2.53;1.90;;;21.50;23.80;;;;;;2258067;61;20940;-65
2024/02/28 00:08:05;0.00;0.00;0.62;0.00;0.00;0.62;3.03;2.10;;;21.50;23.80;;;;;;2260376;61;20381;-66
2024/02/28 00:10:51;0.00;0.00;0.62;0.00;0.00;0.62;3.10;1.83;;;21.50;23.80;;;;;;2260192;61;20381;-66
2024/02/28 00:13:36;0.00;0.00;0.62;0.00;0.00;0.62;2.77;2.00;;;21.50;23.80;;;;;;2491832;53;20807;-67
2024/02/28 00:16:20;0.00;0.00;0.62;0.00;0.00;0.62;2.87;1.80;;;21.50;23.80;;;;;;2256241;61;20919;-67
2024/02/28 00:19:05;0.00;0.00;0.62;0.00;0.00;0.62;2.57;1.33;;;21.50;23.80;;;;;;2256079;61;20445;-67
2024/02/28 00:21:50;0.00;0.00;0.62;0.00;0.00;0.62;3.07;1.83;;;21.50;23.80;;;;;;2256250;61;20366;-67
2024/02/28 00:24:35;0.00;0.00;0.62;0.00;0.00;0.62;3.40;1.70;;;21.50;23.80;;;;;;2256113;61;20779;-66
2024/02/28 00:27:21;0.00;0.00;0.62;0.00;0.00;0.62;2.60;1.83;;;21.50;23.80;;;;;;2255928;61;20362;-66
2024/02/28 00:30:07;0.00;0.00;0.62;0.00;0.00;0.62;2.53;1.97;;;21.50;23.80;;;;;;2256479;61;20366;-66
2024/02/28 00:32:52;0.00;0.00;0.62;0.00;0.00;0.62;2.17;1.73;;;21.50;23.80;;;;;;2256125;61;20365;-66
2024/02/28 00:35:39;0.00;0.00;0.62;0.00;0.00;0.62;2.07;1.53;;;21.50;23.80;;;;;;2268872;40;20414;-66
2024/02/28 00:38:24;0.00;0.00;0.62;0.00;0.00;0.62;2.47;1.73;;;21.50;23.80;;;;;;2265264;61;20430;-66
2024/02/28 00:41:09;0.00;0.00;0.62;0.00;0.00;0.62;2.40;1.77;;;21.50;23.80;;;;;;2267746;61;20386;-68
2024/02/28 00:43:56;0.00;0.00;0.62;0.00;0.00;0.62;2.33;1.60;;;21.50;23.80;;;;;;2260736;61;20891;-66
2024/02/28 00:46:41;0.00;0.00;0.62;0.00;0.00;0.62;2.73;2.00;;;21.50;23.80;;;;;;2265529;61;20968;-67
2024/02/28 00:49:26;0.00;0.00;0.62;0.00;0.00;0.62;2.40;2.20;;;21.50;23.80;;;;;;2265608;61;20936;-66
2024/02/28 00:52:11;0.00;0.00;0.62;0.00;0.00;0.62;2.50;2.03;;;21.50;23.80;;;;;;2265527;61;20376;-67
2024/02/28 00:54:55;0.00;0.00;0.62;0.00;0.00;0.62;2.70;1.83;;;21.50;23.80;;;;;;2265777;61;20463;-66
2024/02/28 00:57:40;0.00;0.00;0.62;0.00;0.00;0.62;2.60;1.50;;;21.50;23.80;;;;;;2265577;61;20400;-67
2024/02/28 01:00:25;0.00;0.00;0.62;0.00;0.00;0.62;2.23;1.73;;;21.50;23.80;;;;;;2265864;61;20364;-66
2024/02/28 01:03:13;0.00;0.00;0.62;0.00;0.00;0.62;3.27;2.40;;;21.50;23.80;;;;;;2265771;61;20446;-66
2024/02/28 01:06:00;0.00;0.00;0.62;0.00;0.00;0.62;2.60;1.93;;;21.50;23.80;;;;;;2264664;61;20379;-64
2024/02/28 01:08:45;0.00;0.00;0.62;0.00;0.00;0.62;2.63;1.83;;;21.50;23.80;;;;;;2264608;61;20371;-67
2024/02/28 01:11:30;0.00;0.00;0.62;0.00;0.00;0.62;2.47;1.87;;;21.50;23.80;;;;;;2263970;61;20905;-67
2024/02/28 01:14:14;0.00;0.00;0.62;0.00;0.00;0.62;2.20;1.67;;;21.50;23.80;;;;;;2262313;61;20871;-66
2024/02/28 01:17:00;0.00;0.00;0.62;0.00;0.00;0.62;3.03;2.13;;;21.40;23.70;;;;;;2262588;61;20349;-68
2024/02/28 01:19:45;0.00;0.00;0.62;0.00;0.00;0.62;2.37;1.67;;;21.50;23.80;;;;;;2263164;61;20894;-66
2024/02/28 01:22:30;0.00;0.00;0.62;0.00;0.00;0.62;2.30;1.60;;;21.50;23.80;;;;;;2263784;61;20389;-67
2024/02/28 01:25:15;0.00;0.00;0.62;0.00;0.00;0.62;2.43;2.13;;;21.50;23.80;;;;;;2262481;61;20460;-66
2024/02/28 01:28:00;0.00;0.00;0.62;0.00;0.00;0.62;2.17;1.60;;;21.50;23.80;;;;;;2263381;61;20380;-66
2024/02/28 01:30:45;0.00;0.00;0.62;0.00;0.00;0.62;3.67;1.87;;;21.50;23.80;;;;;;2263871;61;20396;-66
2024/02/28 01:33:31;0.00;0.00;0.62;0.00;0.00;0.62;2.57;1.70;;;21.50;23.80;;;;;;2261882;61;20369;-67
2024/02/28 01:36:15;0.00;0.00;0.62;0.00;0.00;0.62;2.27;1.80;;;21.50;23.80;;;;;;2260995;61;20926;-67
2024/02/28 01:39:00;0.00;0.00;0.62;0.00;0.00;0.62;2.33;1.63;;;21.40;23.70;;;;;;2260917;61;20839;-66
2024/02/28 01:41:53;0.00;0.00;0.62;0.00;0.00;0.62;1.80;1.37;;;21.40;23.70;;;;;;2261157;61;20503;-66
2024/02/28 01:44:44;0.00;0.00;0.62;0.00;0.00;0.62;2.57;1.77;;;21.50;23.80;;;;;;2262028;61;20957;-67
2024/02/28 01:47:30;0.00;0.00;0.62;0.00;0.00;0.62;2.20;1.30;;;21.40;23.70;;;;;;2261464;61;20372;-66
2024/02/28 01:50:16;0.00;0.00;0.62;0.00;0.00;0.62;2.30;1.53;;;21.40;23.70;;;;;;2258386;61;20385;-67
2024/02/28 01:53:01;0.00;0.00;0.62;0.00;0.00;0.62;2.30;1.50;;;21.40;23.70;;;;;;2261372;61;20779;-66
2024/02/28 01:55:47;0.00;0.00;0.62;0.00;0.00;0.62;2.10;1.47;;;21.40;24.20;;;;;;2260521;61;20443;-66
2024/02/28 01:58:32;0.00;0.00;0.62;0.00;0.00;0.62;2.40;1.70;;;21.40;23.70;;;;;;2259639;61;20359;-66
2024/02/28 02:01:17;0.00;0.00;0.62;0.00;0.00;0.62;3.63;2.00;;;21.40;23.70;;;;;;2259866;61;20360;-66
2024/02/28 02:04:08;0.00;0.00;0.62;0.00;0.00;0.62;2.50;1.80;;;21.40;23.60;;;;;;2256417;61;21020;-66
2024/02/28 02:06:54;0.00;0.00;0.62;0.00;0.00;0.62;2.53;2.00;;;21.40;23.70;;;;;;2259804;61;20387;-66
2024/02/28 02:09:39;0.00;0.00;0.62;0.00;0.00;0.62;2.60;2.00;;;21.40;23.70;;;;;;2259818;61;20481;-66
2024/02/28 02:12:24;0.00;0.00;0.62;0.00;0.00;0.62;2.53;1.83;;;21.40;23.70;;;;;;2259960;61;20377;-66
2024/02/28 02:15:09;0.00;0.00;0.62;0.00;0.00;0.62;2.20;1.73;;;21.40;23.60;;;;;;2259611;61;20949;-66
2024/02/28 02:17:53;0.00;0.00;0.62;0.00;0.00;0.62;2.53;1.70;;;21.40;23.70;;;;;;2259771;61;20416;-66
2024/02/28 02:20:43;0.00;0.00;0.62;0.00;0.00;0.62;2.30;1.87;;;21.40;23.70;;;;;;2260016;61;20408;-66
2024/02/28 02:23:30;0.00;0.00;0.62;0.00;0.00;0.62;2.77;1.70;;;21.40;23.70;;;;;;2469455;53;20913;-66
2024/02/28 02:26:15;0.00;0.00;0.62;0.00;0.00;0.62;2.60;1.67;;;21.40;23.70;;;;;;2283769;61;20447;-67
2024/02/28 02:28:59;0.00;0.00;0.62;0.00;0.00;0.62;2.33;1.50;;;21.40;23.70;;;;;;2255429;61;20424;-67
2024/02/28 02:31:44;0.00;0.00;0.62;0.00;0.00;0.62;2.37;1.73;;;21.40;23.70;;;;;;2705293;45;20361;-67
2024/02/28 02:34:28;0.00;0.00;0.62;0.00;0.00;0.62;2.17;1.43;;;21.40;23.60;;;;;;2260555;61;20404;-65
2024/02/28 02:37:13;0.00;0.00;0.62;0.00;0.00;0.62;2.40;1.90;;;21.40;23.60;;;;;;2257791;61;21233;-66
2024/02/28 02:39:59;0.00;0.00;0.62;0.00;0.00;0.62;2.43;1.70;;;21.40;23.60;;;;;;2264552;61;20503;-66
2024/02/28 02:42:44;0.00;0.00;0.62;0.00;0.00;0.62;1.87;1.57;;;21.40;23.60;;;;;;2258706;61;20371;-67
2024/02/28 02:45:29;0.00;0.00;0.62;0.00;0.00;0.62;2.40;1.87;;;21.40;23.60;;;;;;2258462;61;20961;-66
2024/02/28 02:48:13;0.00;0.00;0.62;0.00;0.00;0.62;2.30;1.90;;;21.40;23.50;;;;;;2264406;61;20490;-66
2024/02/28 02:50:58;0.00;0.00;0.62;0.00;0.00;0.62;2.80;2.20;;;21.40;23.50;;;;;;2264846;61;20364;-67
2024/02/28 02:53:43;0.00;0.00;0.62;0.00;0.00;0.62;2.40;1.80;;;21.40;23.50;;;;;;2264358;61;20411;-66
2024/02/28 02:56:28;0.00;0.00;0.62;0.00;0.00;0.62;2.00;1.50;;;21.40;23.50;;;;;;2264371;61;20383;-66
2024/02/28 02:59:13;0.00;0.00;0.62;0.00;0.00;0.62;2.23;1.63;;;21.40;23.50;;;;;;2264640;61;20403;-66
2024/02/28 03:01:58;0.00;0.00;0.62;0.00;0.00;0.62;2.67;1.77;;;21.50;23.50;;;;;;2264335;61;20828;-66
2024/02/28 03:04:43;0.00;0.00;0.62;0.00;0.00;0.62;2.33;1.90;;;21.40;23.50;;;;;;2264129;61;20383;-66
2024/02/28 03:07:27;0.00;0.00;0.62;0.00;0.00;0.62;2.57;1.73;;;21.40;23.50;;;;;;2261083;61;20407;-66
2024/02/28 03:10:12;0.00;0.00;0.62;0.00;0.00;0.62;2.13;1.63;;;21.50;23.50;;;;;;2264325;61;20968;-67
2024/02/28 03:12:58;0.00;0.00;0.62;0.00;0.00;0.62;2.57;1.70;;;21.40;24.00;;;;;;2261166;61;20384;-67
2024/02/28 03:15:42;0.00;0.00;0.62;0.00;0.00;0.62;2.60;2.37;;;21.40;23.40;;;;;;2260745;61;20388;-66
2024/02/28 03:18:27;0.00;0.00;0.62;0.00;0.00;0.62;2.07;1.50;;;21.50;23.40;;;;;;2260477;61;20413;-66
2024/02/28 03:21:12;0.00;0.00;0.62;0.00;0.00;0.62;2.70;2.20;;;21.50;23.40;;;;;;2257426;61;20413;-66
2024/02/28 03:23:57;0.00;0.00;0.62;0.00;0.00;0.62;2.07;1.70;;;21.50;23.40;;;;;;2260255;61;20361;-66
2024/02/28 03:26:42;0.00;0.00;0.62;0.00;0.00;0.62;2.60;1.73;;;21.50;23.40;;;;;;2257154;61;20345;-66
2024/02/28 03:29:28;0.00;0.00;0.62;0.00;0.00;0.62;2.67;1.90;;;21.50;23.40;;;;;;2259900;61;20385;-66
2024/02/28 03:32:12;0.00;0.00;0.62;0.00;0.00;0.62;2.43;1.73;;;21.40;23.30;;;;;;2260275;61;20419;-66
2024/02/28 03:34:57;0.00;0.00;0.62;0.00;0.00;0.62;2.50;1.90;;;21.40;23.90;;;;;;2260405;61;20384;-66
2024/02/28 03:37:42;0.00;0.00;0.62;0.00;0.00;0.62;2.90;1.93;;;21.40;23.30;;;;;;2257133;61;20442;-66
2024/02/28 03:40:26;0.00;0.00;0.62;0.00;0.00;0.62;4.30;2.20;;;21.40;23.30;;;;;;2259956;61;20385;-66
2024/02/28 03:43:12;0.00;0.00;0.62;0.00;0.00;0.62;2.40;1.90;;;21.40;23.30;;;;;;2260538;61;20420;-66
2024/02/28 03:45:58;0.00;0.00;0.62;0.00;0.00;0.62;3.40;2.03;;;21.40;23.30;;;;;;2259939;61;20416;-66
2024/02/28 03:48:43;0.00;0.00;0.62;0.00;0.00;0.62;2.73;1.87;;;21.40;23.30;;;;;;2492899;53;20420;-65
2024/02/28 03:51:29;0.00;0.00;0.62;0.00;0.00;0.62;2.23;1.50;;;21.40;23.30;;;;;;2256923;61;20826;-67
2024/02/28 03:54:14;0.00;0.00;0.62;0.00;0.00;0.62;2.27;1.57;;;21.40;23.30;;;;;;2256931;61;20365;-66
2024/02/28 03:56:59;0.00;0.00;0.62;0.00;0.00;0.62;2.43;1.77;;;21.40;23.30;;;;;;2260264;61;20457;-66
2024/02/28 03:59:43;0.00;0.00;0.62;0.00;0.00;0.62;3.10;1.93;;;21.40;23.30;;;;;;2260308;61;20835;-67
2024/02/28 04:02:29;0.00;0.00;0.62;0.00;0.00;0.62;2.23;1.70;;;21.40;23.30;;;;;;2260435;61;20441;-66
2024/02/28 04:05:14;0.00;0.00;0.62;0.00;0.00;0.62;2.80;2.03;;;21.40;23.30;;;;;;2260244;61;20921;-66
2024/02/28 04:08:02;0.00;0.00;0.62;0.00;0.00;0.62;2.13;1.77;;;21.40;23.30;;;;;;2259988;61;20369;-66
2024/02/28 04:10:47;0.00;0.00;0.62;0.00;0.00;0.62;2.20;1.50;;;21.30;23.20;;;;;;2260152;61;20949;-66
2024/02/28 04:13:32;0.00;0.00;0.62;0.00;0.00;0.62;2.63;1.90;;;21.30;23.30;;;;;;2263927;61;20364;-64
2024/02/28 04:16:16;0.00;0.00;0.62;0.00;0.00;0.62;2.90;2.00;;;21.40;23.30;;;;;;2263968;61;20398;-66
2024/02/28 04:19:02;0.00;0.00;0.62;0.00;0.00;0.62;2.30;1.80;;;21.30;23.30;;;;;;2264196;61;20372;-66
2024/02/28 04:21:47;0.00;0.00;0.62;0.00;0.00;0.62;2.50;1.97;;;21.30;23.30;;;;;;2264110;61;20418;-66
2024/02/28 04:24:32;0.00;0.00;0.62;0.00;0.00;0.62;2.50;1.47;;;21.30;23.80;;;;;;2264042;61;20419;-67
2024/02/28 04:27:17;0.00;0.00;0.62;0.00;0.00;0.62;2.10;1.60;;;21.30;23.30;;;;;;2264001;61;20356;-66
2024/02/28 04:30:02;0.00;0.00;0.62;0.00;0.00;0.62;2.77;2.17;;;21.30;23.30;;;;;;2260469;61;20446;-65
2024/02/28 04:32:47;0.00;0.00;0.62;0.00;0.00;0.62;2.50;2.00;;;21.30;23.30;;;;;;2263959;61;20896;-67
2024/02/28 04:35:33;0.00;0.00;0.62;0.00;0.00;0.62;2.60;1.93;;;21.30;23.30;;;;;;2264234;61;20499;-66
2024/02/28 04:38:17;0.00;0.00;0.62;0.00;0.00;0.62;2.70;2.00;;;21.30;23.30;;;;;;2263850;61;20414;-66
2024/02/28 04:41:03;0.00;0.00;0.62;0.00;0.00;0.62;2.37;1.80;;;21.30;23.30;;;;;;2263967;61;20394;-66
2024/02/28 04:43:48;0.00;0.00;0.62;0.00;0.00;0.62;2.57;1.90;;;21.30;23.30;;;;;;2264069;61;20367;-65
2024/02/28 04:46:34;0.00;0.00;0.62;0.00;0.00;0.62;2.30;1.80;;;21.30;23.30;;;;;;2260197;61;20846;-67
2024/02/28 04:49:19;0.00;0.00;0.62;0.00;0.00;0.62;3.77;2.03;;;21.30;23.30;;;;;;2260129;61;20842;-66
2024/02/28 04:52:06;0.00;0.00;0.62;0.00;0.00;0.62;2.50;1.90;;;21.20;23.20;;;;;;2259988;61;20360;-66
2024/02/28 04:54:51;0.00;0.00;0.62;0.00;0.00;0.62;3.10;2.30;;;21.30;23.30;;;;;;2259754;61;20528;-65
2024/02/28 04:57:36;0.00;0.00;0.62;0.00;0.00;0.62;2.10;1.70;;;21.20;23.30;;;;;;2260207;61;20826;-65
2024/02/28 05:00:20;0.00;0.00;0.62;0.00;0.00;0.62;3.00;2.23;;;21.20;23.30;;;;;;2260380;61;20358;-65
2024/02/28 05:03:04;0.00;0.00;0.62;0.00;0.00;0.62;2.97;1.90;;;21.20;23.20;;;;;;2260220;61;20879;-65
2024/02/28 05:05:49;0.00;0.00;0.62;0.00;0.00;0.62;2.90;2.00;;;21.20;23.30;;;;;;2259853;61;20524;-67
2024/02/28 05:08:37;0.00;0.00;0.62;0.00;0.00;0.62;2.13;1.60;;;21.20;23.30;;;;;;2259797;61;20480;-66
2024/02/28 05:11:22;0.00;0.00;0.62;0.00;0.00;0.62;2.60;1.90;;;21.20;23.30;;;;;;2260624;61;20409;-66
2024/02/28 05:14:06;0.00;0.00;0.62;0.00;0.00;0.62;3.40;2.30;;;21.20;23.30;;;;;;2263990;61;20384;-66
2024/02/28 05:16:51;0.00;0.00;0.62;0.00;0.00;0.62;3.60;2.20;;;21.20;23.30;;;;;;2263612;61;20364;-66
2024/02/28 05:19:35;0.00;0.00;0.62;0.00;0.00;0.62;2.37;2.00;;;21.10;23.20;;;;;;2260937;61;20407;-66
2024/02/28 05:22:20;0.00;0.00;0.62;0.00;0.00;0.62;2.20;1.90;;;21.20;23.30;;;;;;2260903;61;20360;-66
2024/02/28 05:25:06;0.00;0.00;0.62;0.00;0.00;0.62;3.40;2.80;;;21.10;23.20;;;;;;2264216;61;20949;-67
2024/02/28 05:27:51;0.00;0.00;0.62;0.00;0.00;0.62;2.77;2.10;;;21.20;23.30;;;;;;2263846;61;20403;-67
2024/02/28 05:30:36;0.00;0.00;0.62;0.00;0.00;0.62;2.73;2.17;;;21.20;23.30;;;;;;2264076;61;20885;-66
2024/02/28 05:33:21;0.00;0.00;0.62;0.00;0.00;0.62;2.67;2.10;;;21.20;23.30;;;;;;2263992;61;20391;-66
2024/02/28 05:36:06;0.00;0.00;0.62;0.00;0.00;0.62;2.30;1.70;;;21.20;23.30;;;;;;2260524;61;20384;-65
2024/02/28 05:38:53;0.00;0.00;0.62;0.00;0.00;0.62;3.00;2.37;;;21.10;23.20;;;;;;2263515;61;20849;-66
2024/02/28 05:41:39;0.00;0.00;0.62;0.00;0.00;0.62;3.77;2.53;;;21.10;23.20;;;;;;2264238;61;20452;-66
2024/02/28 05:44:26;0.00;0.00;0.62;0.00;0.00;0.62;2.50;1.97;;;21.10;23.20;;;;;;2263683;61;20372;-66
2024/02/28 05:47:11;0.00;0.00;0.62;0.00;0.00;0.62;2.70;2.00;;;21.10;23.20;;;;;;2261957;61;20412;-68
2024/02/28 05:49:58;0.00;0.00;0.62;0.00;0.00;0.62;3.30;2.27;;;21.10;23.20;;;;;;2259781;61;20389;-66
2024/02/28 05:52:42;0.00;0.00;0.62;0.00;0.00;0.62;2.83;2.10;;;21.10;23.20;;;;;;2259892;61;20384;-71
2024/02/28 05:55:28;0.00;0.00;0.62;0.00;0.00;0.62;3.93;2.57;;;21.10;23.20;;;;;;2259649;61;20432;-66
2024/02/28 05:58:15;0.00;0.00;0.62;0.00;0.00;0.62;3.70;2.80;;;21.10;23.20;;;;;;2259900;61;20391;-66
2024/02/28 06:01:00;0.00;0.00;0.62;0.00;0.00;0.62;5.93;3.10;;;21.10;23.80;;;;;;2260014;61;20366;-66
2024/02/28 06:03:47;0.00;0.00;0.62;0.00;0.00;0.62;3.93;3.10;;;21.10;23.20;;;;;;2260177;61;20701;-66
2024/02/28 06:06:31;0.00;0.00;0.62;0.00;0.00;0.62;4.50;3.80;;;21.00;23.20;;;;;;2260246;61;20389;-65
2024/02/28 06:09:16;0.00;0.00;0.62;0.00;0.00;0.62;4.00;3.00;;;21.10;23.20;;;;;;2260481;61;20420;-66
2024/02/28 06:12:01;0.00;0.00;0.62;0.00;0.00;0.62;5.73;4.10;;;21.00;23.20;;;;;;2261881;61;20371;-66
2024/02/28 06:14:47;0.00;0.00;0.62;0.00;0.00;0.62;4.73;3.63;;;21.10;23.20;;;;;;2264480;61;20391;-65
2024/02/28 06:17:32;0.00;0.00;0.62;0.00;0.00;0.62;6.63;4.70;;;21.00;23.20;;;;;;2264508;61;20388;-66
2024/02/28 06:20:17;0.00;0.00;0.62;0.00;0.00;0.62;7.27;5.00;;;21.00;23.20;;;;;;2264563;61;20391;-66
2024/02/28 06:23:01;0.00;0.00;0.62;0.00;0.00;0.62;5.43;4.83;;;21.00;23.20;;;;;;2264259;61;20926;-69
2024/02/28 06:25:46;0.00;0.00;0.62;0.00;0.00;0.62;6.20;4.83;;;21.00;23.20;;;;;;2264558;61;20387;-66
2024/02/28 06:28:32;0.00;0.00;0.62;0.00;0.00;0.62;7.37;5.30;;;21.00;23.20;;;;;;2264456;61;20443;-67
2024/02/28 06:31:19;0.00;0.00;0.62;0.00;0.00;0.62;5.70;4.80;;;21.00;23.20;;;;;;2264503;61;20901;-65
2024/02/28 06:34:04;0.00;0.00;0.62;0.00;0.00;0.62;7.23;5.37;;;21.00;23.10;;;;;;2264505;61;20948;-67
2024/02/28 06:36:49;0.00;0.00;0.62;0.00;0.00;0.62;7.00;6.13;;;21.00;23.20;;;;;;2264457;61;20360;-66
2024/02/28 06:39:34;0.00;0.00;0.62;0.00;0.00;0.62;8.20;6.77;;;21.00;23.20;;;;;;2264660;61;20364;-66
2024/02/28 06:42:19;0.00;0.00;0.62;0.00;0.00;0.62;7.87;6.83;;;21.00;23.20;;;;;;2264424;61;20408;-67
2024/02/28 06:45:04;0.00;0.00;0.62;0.00;0.00;0.62;8.90;6.70;;;21.00;23.10;;;;;;2264288;61;20507;-66
2024/02/28 06:47:50;0.00;0.00;0.62;0.00;0.00;0.62;9.60;7.50;;;21.00;23.10;;;;;;2258666;61;20476;-66
2024/02/28 06:50:35;0.00;0.00;0.62;0.00;0.00;0.62;8.60;7.23;;;21.00;23.10;;;;;;2260705;61;20377;-66
2024/02/28 06:53:20;0.00;0.00;0.62;0.00;0.00;0.62;8.00;6.83;;;21.00;23.20;;;;;;2260800;61;20445;-66
2024/02/28 06:56:05;0.00;0.00;0.62;0.00;0.00;0.62;8.83;7.00;;;20.90;23.10;;;;;;2260820;61;20385;-66
2024/02/28 06:58:50;0.00;0.00;0.62;0.00;0.00;0.62;10.67;8.43;;;21.00;23.20;;;;;;2260762;61;20377;-66
2024/02/28 07:01:34;0.00;0.00;0.62;0.00;0.00;0.62;9.60;7.90;;;21.00;23.20;;;;;;2261629;61;20945;-66
2024/02/28 07:04:20;0.00;0.00;0.62;0.00;0.00;0.62;11.37;9.93;;;21.00;23.20;;;;;;2261165;61;20341;-65
2024/02/28 07:07:05;0.00;0.00;0.62;0.00;0.00;0.62;10.13;8.23;;;21.00;23.20;;;;;;2260409;61;20420;-66
2024/02/28 07:09:50;0.00;0.00;0.62;0.00;0.00;0.62;10.23;8.37;;;21.00;23.20;;;;;;2260892;61;20407;-65
2024/02/28 07:12:36;0.00;0.00;0.62;0.00;0.00;0.62;13.60;10.33;;;21.00;23.20;;;;;;2263063;61;20372;-66
2024/02/28 07:15:21;0.00;0.00;0.62;0.00;0.00;0.62;15.10;11.30;;;20.90;23.10;;;;;;2261279;61;20387;-64
2024/02/28 07:18:06;0.00;0.00;0.62;0.00;0.00;0.62;12.53;10.30;;;20.90;23.20;;;;;;2261696;61;20372;-65
2024/02/28 07:20:52;0.00;0.00;0.62;0.00;0.00;0.62;10.80;9.37;;;20.90;23.20;;;;;;2264568;61;20497;-65
2024/02/28 07:23:40;0.00;0.00;0.62;0.00;0.00;0.62;12.50;10.47;;;20.90;23.20;;;;;;2265342;61;20823;-66
2024/02/28 07:26:25;0.00;0.00;0.62;0.00;0.00;0.62;12.00;10.20;;;20.90;23.20;;;;;;2267564;61;20446;-65
2024/02/28 07:29:09;0.00;0.00;0.62;0.00;0.00;0.62;13.60;11.03;;;20.90;23.20;;;;;;2267202;61;20442;-65
2024/02/28 07:31:54;0.00;0.00;0.62;0.00;0.00;0.62;12.03;10.03;;;20.90;23.20;;;;;;2267681;61;20840;-66
2024/02/28 07:34:39;0.00;0.00;0.62;0.00;0.00;0.62;14.63;11.50;;;20.90;23.20;;;;;;2267982;61;20443;-67
2024/02/28 07:37:26;0.00;0.00;0.62;0.00;0.00;0.62;13.70;11.10;;;20.90;23.20;;;;;;2264085;61;20364;-67
2024/02/28 07:40:11;0.00;0.00;0.62;0.00;0.00;0.62;13.73;11.63;;;20.90;23.20;;;;;;2267254;61;20647;-67
2024/02/28 07:42:56;0.00;0.00;0.62;0.00;0.00;0.62;16.03;13.00;;;20.90;23.20;;;;;;2267513;61;20395;-66
2024/02/28 07:45:41;0.00;0.00;0.62;0.00;0.00;0.62;14.50;11.13;;;20.90;23.20;;;;;;2264508;61;20442;-66
2024/02/28 07:48:26;0.00;0.00;0.62;0.00;0.00;0.62;12.07;10.50;;;20.90;23.20;;;;;;2264147;61;20385;-66
2024/02/28 07:51:11;0.00;0.00;0.62;0.00;0.00;0.62;16.10;12.83;;;20.90;23.20;;;;;;2263303;61;20365;-67
2024/02/28 07:53:57;0.00;0.00;0.62;0.00;0.00;0.62;16.00;13.27;;;20.90;23.20;;;;;;2262880;61;20463;-68
2024/02/28 07:56:41;0.00;0.00;0.62;0.00;0.00;0.62;14.70;12.10;;;20.90;23.20;;;;;;2263837;61;20441;-68
2024/02/28 07:59:26;0.00;0.00;0.62;0.00;0.00;0.62;14.80;13.17;;;20.90;23.20;;;;;;2262995;61;20365;-66
2024/02/28 08:02:12;0.00;0.00;0.62;0.00;0.00;0.62;13.87;11.57;;;20.90;23.20;;;;;;2264550;61;20445;-66
2024/02/28 08:04:57;0.00;0.00;0.62;0.00;0.00;0.62;12.93;10.93;;;20.90;23.20;;;;;;2262540;61;20412;-67
2024/02/28 08:07:42;0.00;0.00;0.62;0.00;0.00;0.62;13.30;11.40;;;20.90;23.20;;;;;;2260730;61;20380;-67
2024/02/28 08:10:32;0.00;0.00;0.62;0.00;0.00;0.62;15.70;12.30;;;20.90;23.20;;;;;;2256767;61;20457;-68
2024/02/28 08:13:17;0.00;0.00;0.62;0.00;0.00;0.62;12.30;10.10;;;20.90;23.20;;;;;;2261555;61;20394;-67
2024/02/28 08:16:03;0.00;0.00;0.62;0.00;0.00;0.62;15.40;12.10;;;20.90;23.20;;;;;;2356962;45;20966;-69
2024/02/28 08:18:48;0.00;0.00;0.62;0.00;0.00;0.62;13.30;11.20;;;20.90;23.30;;;;;;2271480;61;20366;-68
2024/02/28 08:21:32;0.00;0.00;0.62;0.00;0.00;0.62;12.20;10.43;;;20.90;23.20;;;;;;2271491;61;20432;-68
2024/02/28 08:24:17;0.00;0.00;0.62;0.00;0.00;0.62;13.50;10.70;;;20.90;23.20;;;;;;2271890;61;20436;-68
2024/02/28 08:27:03;0.00;0.00;0.62;0.00;0.00;0.62;12.60;10.63;;;20.90;23.20;;;;;;2271358;60;20405;-68
2024/02/28 08:29:48;0.00;0.00;0.62;0.00;0.00;0.62;14.10;11.77;;;20.90;23.20;;;;;;2271488;61;20422;-69
2024/02/28 08:32:33;0.00;0.00;0.62;0.00;0.00;0.62;12.43;10.53;;;20.90;23.20;;;;;;2271522;61;20471;-68
2024/02/28 08:35:18;0.00;0.00;0.62;0.00;0.00;0.62;14.53;11.30;;;20.90;23.20;;;;;;2271722;61;20439;-69
2024/02/28 08:38:03;0.00;0.00;0.62;0.00;0.00;0.62;13.77;10.80;;;20.90;23.20;;;;;;2271442;61;20825;-68
2024/02/28 08:40:48;0.00;0.00;0.62;0.00;0.00;0.62;12.00;10.10;;;20.90;23.20;;;;;;2271528;61;20386;-68
2024/02/28 08:43:37;0.00;0.00;0.62;0.00;0.00;0.62;10.90;9.77;;;20.90;23.20;;;;;;2271552;61;20898;-68
2024/02/28 08:46:22;0.00;0.00;0.62;0.00;0.00;0.62;13.33;10.77;;;20.90;23.20;;;;;;2271393;61;20386;-68
2024/02/28 08:49:07;0.00;0.00;0.62;0.00;0.00;0.62;11.10;9.47;;;20.90;23.20;;;;;;2271459;61;20377;-68
2024/02/28 08:51:51;0.00;0.00;0.62;0.00;0.00;0.62;12.83;10.63;;;20.90;23.20;;;;;;2271428;61;20365;-69
2024/02/28 08:54:36;0.00;0.00;0.62;0.00;0.00;0.62;10.63;9.53;;;20.90;23.30;;;;;;2271567;61;20382;-68
2024/02/28 08:57:22;0.00;0.00;0.62;0.00;0.00;0.62;12.00;9.63;;;20.90;23.30;;;;;;2271464;61;20453;-68
2024/02/28 09:00:10;0.00;0.00;0.62;0.00;0.00;0.62;11.50;9.70;;;20.90;23.30;;;;;;2271580;61;20419;-68
2024/02/28 09:02:55;0.00;0.00;0.62;0.00;0.00;0.62;11.50;9.90;;;21.00;23.40;;;;;;2270875;61;20365;-68
2024/02/28 09:05:40;0.00;0.00;0.62;0.00;0.00;0.62;14.93;11.07;;;20.90;23.30;;;;;;2271360;61;20386;-68
2024/02/28 09:08:24;0.00;0.00;0.62;0.00;0.00;0.62;14.90;11.30;;;21.00;23.40;;;;;;2271711;61;20366;-68
2024/02/28 09:11:09;0.00;0.00;0.62;0.00;0.00;0.62;13.17;11.60;;;21.00;23.40;;;;;;2271354;61;20895;-68
2024/02/28 09:13:54;0.00;0.00;0.62;0.00;0.00;0.62;14.00;11.50;;;21.00;23.40;;;;;;2267197;61;20398;-68
2024/02/28 09:16:40;0.00;0.00;0.62;0.00;0.00;0.62;13.73;11.10;;;21.00;23.40;;;;;;2267580;61;20943;-68
2024/02/28 09:19:25;0.00;0.00;0.62;0.00;0.00;0.62;12.80;10.80;;;21.00;23.40;;;;;;2267257;61;20359;-68
2024/02/28 09:22:09;0.00;0.00;0.62;0.00;0.00;0.62;13.60;10.60;;;21.00;23.40;;;;;;2267429;61;20429;-68
2024/02/28 09:24:54;0.00;0.00;0.62;0.00;0.00;0.62;13.23;9.80;;;21.00;23.40;;;;;;2267153;61;20513;-68
2024/02/28 09:27:38;0.00;0.00;0.62;0.00;0.00;0.62;11.33;9.87;;;21.00;23.40;;;;;;2267319;61;20764;-68
2024/02/28 09:30:23;0.00;0.00;0.62;0.00;0.00;0.62;12.40;10.93;;;21.00;23.30;;;;;;2267427;61;20449;-68
2024/02/28 09:33:10;0.00;0.00;0.62;0.00;0.00;0.62;12.60;11.33;;;21.00;23.30;;;;;;2264006;61;20366;-68
2024/02/28 09:35:55;0.00;0.00;0.62;0.00;0.00;0.62;12.40;10.20;;;21.10;23.40;;;;;;2267139;61;20436;-68
2024/02/28 09:38:41;0.00;0.00;0.62;0.00;0.00;0.62;10.93;9.40;;;21.00;23.30;;;;;;2267767;61;20366;-68
2024/02/28 09:41:27;0.00;0.00;0.62;0.00;0.00;0.62;12.37;11.07;;;21.10;23.40;;;;;;2268050;61;20371;-69
2024/02/28 09:44:14;0.00;0.00;0.62;0.00;0.00;0.62;10.60;9.13;;;21.10;23.40;;;;;;2267990;61;20359;-68
2024/02/28 09:46:59;0.00;0.00;0.62;0.00;0.00;0.62;10.83;8.67;;;21.10;23.40;;;;;;2269102;61;20381;-68
2024/02/28 09:49:49;0.00;0.00;0.62;0.00;0.00;0.62;10.60;8.23;;;21.10;23.40;;;;;;2272053;61;20984;-69
2024/02/28 09:52:35;0.00;0.00;0.62;0.00;0.00;0.62;13.53;9.27;;;21.10;23.40;;;;;;2272167;61;20767;-68
2024/02/28 09:55:20;0.00;0.00;0.62;0.00;0.00;0.62;12.97;10.03;;;21.20;23.40;;;;;;2272132;61;20466;-68
2024/02/28 09:58:07;0.00;0.00;0.62;0.00;0.00;0.62;10.37;9.27;;;21.10;23.40;;;;;;2271825;61;20358;-68
2024/02/28 10:00:55;0.00;0.00;0.62;0.00;0.00;0.62;12.70;9.77;;;21.10;23.40;;;;;;2272270;61;20400;-69
2024/02/28 10:03:42;0.00;0.00;0.62;0.00;0.00;0.62;12.13;9.80;;;21.20;23.40;;;;;;2272007;61;20579;-67
2024/02/28 10:06:28;0.00;0.00;0.62;0.00;0.00;0.62;11.97;9.80;;;21.20;23.40;;;;;;2272004;61;20386;-68
2024/02/28 10:09:15;0.00;0.00;0.62;0.00;0.00;0.62;10.73;9.63;;;21.20;23.40;;;;;;2271822;61;20397;-68
2024/02/28 10:12:03;0.00;0.00;0.62;0.00;0.00;0.62;11.23;9.63;;;21.20;23.40;;;;;;2270364;61;20457;-68
2024/02/28 10:14:51;0.00;0.00;0.62;0.00;0.00;0.62;11.53;8.83;;;21.20;23.40;;;;;;2266945;61;20484;-68
2024/02/28 10:17:35;0.00;0.00;0.62;0.00;0.00;0.62;10.07;8.87;;;21.20;23.30;;;;;;2263776;61;20443;-67
2024/02/28 10:20:20;0.00;0.00;0.62;0.00;0.00;0.62;10.53;8.47;;;21.20;23.30;;;;;;2263684;61;20472;-67
2024/02/28 10:23:08;0.00;0.00;0.62;0.00;0.00;0.62;9.33;8.10;;;21.20;23.30;;;;;;2260931;61;20820;-67
2024/02/28 10:25:53;0.00;0.00;0.62;0.00;0.00;0.62;13.20;8.70;;;21.20;23.30;;;;;;2263583;61;20437;-68
2024/02/28 10:28:39;0.00;0.00;0.62;0.00;0.00;0.62;10.53;9.07;;;21.30;23.30;;;;;;2263848;61;20419;-68
2024/02/28 10:31:24;0.00;0.00;0.62;0.00;0.00;0.62;10.73;8.63;;;21.30;23.30;;;;;;2263868;61;20912;-68
2024/02/28 10:34:09;0.00;0.00;0.62;0.00;0.00;0.62;10.40;8.80;;;21.30;23.30;;;;;;2260543;61;20360;-67
2024/02/28 10:36:53;0.00;0.00;0.62;0.00;0.00;0.62;9.13;8.07;;;21.30;23.30;;;;;;2263952;61;20367;-68
2024/02/28 10:39:42;0.00;0.00;0.62;0.00;0.00;0.62;8.60;7.53;;;21.30;23.30;;;;;;2263887;61;20368;-68
2024/02/28 10:42:30;0.00;0.00;0.62;0.00;0.00;0.62;8.30;7.10;;;21.30;23.80;;;;;;2263672;61;20511;-67
2024/02/28 10:45:18;0.00;0.00;0.62;0.00;0.00;0.62;10.30;8.67;;;21.30;23.30;;;;;;2263879;61;20383;-67
2024/02/28 10:48:04;0.00;0.00;0.62;0.00;0.00;0.62;8.90;7.50;;;21.30;23.30;;;;;;2266553;61;20375;-67
2024/02/28 10:50:50;0.00;0.00;0.62;0.00;0.00;0.62;9.00;7.47;;;21.30;23.30;;;;;;2267699;61;20432;-68